CYTZ METAR and TAF weather

Enter ICAO airport designator

Example: see airport list

Station Type Date Time Source
CYTZ METAR 2016/07/31 01:00 UTC NOAA

CYTZ 310100Z AUTO 06011KT 9SM FEW085 22/15 A3000 RMK SLP161 DENSITY ALT 1000FT

Station Type Date Time Source
CYTZ Decoded METAR 2016/07/31 01:00 UTC NOAA

Toronto Island Airport Automated Reporting Station, Canada (CYTZ) 43-38N 079-24W
Jul 30, 2016 - 09:00 PM EDT / 2016.07.31 0100 UTC
Wind: from the ENE (060 degrees) at 13 MPH (11 KT):0
Visibility: 9 mile(s):0
Sky conditions: mostly clear
Temperature: 71 F (22 C)
Dew Point: 59 F (15 C)
Relative Humidity: 64%
Pressure (altimeter): 30 in. Hg (1015 hPa)
ob: CYTZ 310100Z AUTO 06011KT 9SM FEW085 22/15 A3000 RMK SLP161 DENSITY ALT 1000FT
cycle: 1

Station Type Date Time Source
CYTZ TAF 2016/07/30 20:42 UTC NOAA

TAF CYTZ 301938Z 3020/3120 08012G22KT P6SM SCT050 BKN120
FM311100 07012G22KT P6SM -SHRA BKN020
FM311800 07015G25KT P6SM SCT020 BKN050 PROB30 3118/3120 2SM TSRA BR BKN020 BKN050CB
RMK FCST BASED ON AUTO OBS. NXT FCST BY 310200Z